sensor_id;sensor_type;location;lat;lon;timestamp;pressure;altitude;pressure_sealevel;temperature;humidity
12781;BME280;6454;43.304;24.344;2022-08-20T00:00:27;99688.16;;;22.68;69.93
12781;BME280;6454;43.304;24.344;2022-08-20T00:02:56;99686.16;;;22.69;69.87
12781;BME280;6454;43.304;24.344;2022-08-20T00:05:25;99685.72;;;22.63;69.91
12781;BME280;6454;43.304;24.344;2022-08-20T00:07:54;99688.84;;;22.62;69.98
12781;BME280;6454;43.304;24.344;2022-08-20T00:10:21;99682.47;;;22.58;70.24
12781;BME280;6454;43.304;24.344;2022-08-20T00:12:49;99695.00;;;22.48;70.60
12781;BME280;6454;43.304;24.344;2022-08-20T00:15:18;99692.56;;;22.43;70.72
12781;BME280;6454;43.304;24.344;2022-08-20T00:17:46;99686.19;;;22.39;71.05
12781;BME280;6454;43.304;24.344;2022-08-20T00:20:13;99693.31;;;22.40;71.01
12781;BME280;6454;43.304;24.344;2022-08-20T00:22:40;99692.47;;;22.36;71.12
12781;BME280;6454;43.304;24.344;2022-08-20T00:25:09;99693.16;;;22.29;71.39
12781;BME280;6454;43.304;24.344;2022-08-20T00:27:36;99692.38;;;22.29;71.04
12781;BME280;6454;43.304;24.344;2022-08-20T00:30:06;99684.47;;;22.27;71.16
12781;BME280;6454;43.304;24.344;2022-08-20T00:32:41;99684.41;;;22.24;71.38
12781;BME280;6454;43.304;24.344;2022-08-20T00:35:08;99682.78;;;22.19;71.44
12781;BME280;6454;43.304;24.344;2022-08-20T00:37:35;99676.78;;;22.14;71.71
12781;BME280;6454;43.304;24.344;2022-08-20T00:40:03;99673.56;;;22.08;71.60
12781;BME280;6454;43.304;24.344;2022-08-20T00:42:39;99671.13;;;22.03;72.05
12781;BME280;6454;43.304;24.344;2022-08-20T00:45:07;99662.00;;;21.99;72.08
12781;BME280;6454;43.304;24.344;2022-08-20T00:47:34;99669.13;;;22.00;72.24
12781;BME280;6454;43.304;24.344;2022-08-20T00:50:01;99673.09;;;22.03;72.16
12781;BME280;6454;43.304;24.344;2022-08-20T00:52:31;99666.03;;;22.05;71.88
12781;BME280;6454;43.304;24.344;2022-08-20T00:54:59;99657.69;;;22.02;72.52
12781;BME280;6454;43.304;24.344;2022-08-20T00:57:29;99654.91;;;22.02;72.16
12781;BME280;6454;43.304;24.344;2022-08-20T01:00:03;99636.69;;;21.94;72.27
12781;BME280;6454;43.304;24.344;2022-08-20T01:02:31;99623.94;;;21.86;72.29
12781;BME280;6454;43.304;24.344;2022-08-20T01:04:59;99641.41;;;21.93;72.50
12781;BME280;6454;43.304;24.344;2022-08-20T01:07:28;99646.88;;;21.90;72.72
12781;BME280;6454;43.304;24.344;2022-08-20T01:09:58;99641.34;;;21.90;72.55
12781;BME280;6454;43.304;24.344;2022-08-20T01:12:27;99643.69;;;21.88;72.87
12781;BME280;6454;43.304;24.344;2022-08-20T01:14:56;99643.38;;;21.93;72.52
12781;BME280;6454;43.304;24.344;2022-08-20T01:17:27;99627.13;;;21.88;72.98
12781;BME280;6454;43.304;24.344;2022-08-20T01:19:59;99632.56;;;21.84;72.88
12781;BME280;6454;43.304;24.344;2022-08-20T01:22:31;99625.41;;;21.79;72.86
12781;BME280;6454;43.304;24.344;2022-08-20T01:25:24;99621.38;;;21.73;73.38
12781;BME280;6454;43.304;24.344;2022-08-20T01:27:55;99616.63;;;21.74;73.22
12781;BME280;6454;43.304;24.344;2022-08-20T01:30:25;99612.78;;;21.78;73.17
12781;BME280;6454;43.304;24.344;2022-08-20T01:32:53;99610.38;;;21.77;73.20
12781;BME280;6454;43.304;24.344;2022-08-20T01:35:21;99621.38;;;21.73;73.52
12781;BME280;6454;43.304;24.344;2022-08-20T01:37:48;99632.38;;;21.70;73.70
12781;BME280;6454;43.304;24.344;2022-08-20T01:40:26;99622.81;;;21.64;73.26
12781;BME280;6454;43.304;24.344;2022-08-20T01:43:00;99625.88;;;21.59;73.59
12781;BME280;6454;43.304;24.344;2022-08-20T01:45:33;99620.44;;;21.62;73.31
12781;BME280;6454;43.304;24.344;2022-08-20T01:48:01;99609.28;;;21.55;73.29
12781;BME280;6454;43.304;24.344;2022-08-20T01:50:30;99616.06;;;21.61;72.86
12781;BME280;6454;43.304;24.344;2022-08-20T01:53:01;99609.59;;;21.50;73.07
12781;BME280;6454;43.304;24.344;2022-08-20T01:55:29;99617.09;;;21.50;73.34
12781;BME280;6454;43.304;24.344;2022-08-20T01:57:56;99617.88;;;21.50;73.61
12781;BME280;6454;43.304;24.344;2022-08-20T02:00:25;99613.97;;;21.51;73.69
12781;BME280;6454;43.304;24.344;2022-08-20T02:02:52;99625.75;;;21.48;73.70
12781;BME280;6454;43.304;24.344;2022-08-20T02:05:20;99614.72;;;21.48;73.21
12781;BME280;6454;43.304;24.344;2022-08-20T02:07:47;99617.47;;;21.48;73.74
12781;BME280;6454;43.304;24.344;2022-08-20T02:10:16;99622.56;;;21.46;73.46
12781;BME280;6454;43.304;24.344;2022-08-20T02:12:43;99628.88;;;21.47;73.61
12781;BME280;6454;43.304;24.344;2022-08-20T02:15:11;99634.34;;;21.43;73.75
12781;BME280;6454;43.304;24.344;2022-08-20T02:17:40;99635.88;;;21.41;73.56
12781;BME280;6454;43.304;24.344;2022-08-20T02:20:11;99627.19;;;21.39;73.78
12781;BME280;6454;43.304;24.344;2022-08-20T02:22:41;99623.56;;;21.35;73.56
12781;BME280;6454;43.304;24.344;2022-08-20T02:25:10;99616.81;;;21.32;73.66
12781;BME280;6454;43.304;24.344;2022-08-20T02:27:38;99618.34;;;21.30;74.06
12781;BME280;6454;43.304;24.344;2022-08-20T02:30:11;99619.97;;;21.31;74.24
12781;BME280;6454;43.304;24.344;2022-08-20T02:32:40;99621.91;;;21.30;73.94
12781;BME280;6454;43.304;24.344;2022-08-20T02:35:10;99611.19;;;21.25;74.49
12781;BME280;6454;43.304;24.344;2022-08-20T02:37:39;99605.69;;;21.25;74.32
12781;BME280;6454;43.304;24.344;2022-08-20T02:40:08;99603.63;;;21.18;74.63
12781;BME280;6454;43.304;24.344;2022-08-20T02:42:36;99596.91;;;21.19;74.65
12781;BME280;6454;43.304;24.344;2022-08-20T02:45:08;99589.81;;;21.18;74.92
12781;BME280;6454;43.304;24.344;2022-08-20T02:47:36;99583.94;;;21.20;74.91
12781;BME280;6454;43.304;24.344;2022-08-20T02:50:06;99585.88;;;21.19;74.53
12781;BME280;6454;43.304;24.344;2022-08-20T02:52:33;99586.69;;;21.20;74.67
12781;BME280;6454;43.304;24.344;2022-08-20T02:55:00;99589.06;;;21.22;74.17
12781;BME280;6454;43.304;24.344;2022-08-20T02:57:27;99610.22;;;21.14;74.44
12781;BME280;6454;43.304;24.344;2022-08-20T02:59:54;99583.91;;;20.97;74.89
12781;BME280;6454;43.304;24.344;2022-08-20T03:02:21;99595.03;;;21.01;74.84
12781;BME280;6454;43.304;24.344;2022-08-20T03:04:48;99610.19;;;21.10;75.10
12781;BME280;6454;43.304;24.344;2022-08-20T03:07:16;99611.19;;;21.02;75.16
12781;BME280;6454;43.304;24.344;2022-08-20T03:09:43;99604.03;;;20.98;75.56
12781;BME280;6454;43.304;24.344;2022-08-20T03:12:10;99609.22;;;21.03;75.43
12781;BME280;6454;43.304;24.344;2022-08-20T03:14:37;99602.22;;;21.05;75.55
12781;BME280;6454;43.304;24.344;2022-08-20T03:17:04;99607.81;;;21.09;75.12
12781;BME280;6454;43.304;24.344;2022-08-20T03:19:31;99608.38;;;20.99;75.48
12781;BME280;6454;43.304;24.344;2022-08-20T03:21:58;99619.41;;;20.99;75.61
12781;BME280;6454;43.304;24.344;2022-08-20T03:24:27;99622.03;;;20.92;75.51
12781;BME280;6454;43.304;24.344;2022-08-20T03:26:53;99623.22;;;20.91;75.77
12781;BME280;6454;43.304;24.344;2022-08-20T03:29:20;99622.78;;;20.89;76.17
12781;BME280;6454;43.304;24.344;2022-08-20T03:31:47;99627.13;;;20.90;76.02
12781;BME280;6454;43.304;24.344;2022-08-20T03:34:14;99627.25;;;20.97;75.81
12781;BME280;6454;43.304;24.344;2022-08-20T03:36:41;99628.13;;;21.01;75.95
12781;BME280;6454;43.304;24.344;2022-08-20T03:39:08;99631.28;;;21.03;76.35
12781;BME280;6454;43.304;24.344;2022-08-20T03:41:39;99631.81;;;21.08;76.54
12781;BME280;6454;43.304;24.344;2022-08-20T03:44:06;99636.09;;;21.06;76.22
12781;BME280;6454;43.304;24.344;2022-08-20T03:46:33;99639.34;;;21.11;76.47
12781;BME280;6454;43.304;24.344;2022-08-20T03:49:00;99656.38;;;21.17;76.17
12781;BME280;6454;43.304;24.344;2022-08-20T03:51:27;99648.06;;;21.13;76.48
12781;BME280;6454;43.304;24.344;2022-08-20T03:53:54;99647.69;;;21.15;76.37
12781;BME280;6454;43.304;24.344;2022-08-20T03:56:21;99639.50;;;21.22;76.44
12781;BME280;6454;43.304;24.344;2022-08-20T03:58:50;99621.25;;;21.14;75.95
12781;BME280;6454;43.304;24.344;2022-08-20T04:01:16;99643.34;;;21.40;75.94
12781;BME280;6454;43.304;24.344;2022-08-20T04:03:43;99644.69;;;21.50;75.93
12781;BME280;6454;43.304;24.344;2022-08-20T04:06:11;99632.53;;;21.54;75.27
12781;BME280;6454;43.304;24.344;2022-08-20T04:08:38;99652.75;;;21.62;75.49
12781;BME280;6454;43.304;24.344;2022-08-20T04:11:06;99640.59;;;21.66;75.75
12781;BME280;6454;43.304;24.344;2022-08-20T04:13:33;99641.03;;;21.68;75.63
12781;BME280;6454;43.304;24.344;2022-08-20T04:16:03;99639.09;;;21.72;75.68
12781;BME280;6454;43.304;24.344;2022-08-20T04:18:33;99638.72;;;21.74;75.66
12781;BME280;6454;43.304;24.344;2022-08-20T04:21:01;99634.06;;;21.78;75.68
12781;BME280;6454;43.304;24.344;2022-08-20T04:23:29;99633.03;;;21.86;75.76
12781;BME280;6454;43.304;24.344;2022-08-20T04:25:56;99632.25;;;21.89;75.70
12781;BME280;6454;43.304;24.344;2022-08-20T04:28:24;99631.56;;;21.96;76.70
12781;BME280;6454;43.304;24.344;2022-08-20T04:30:53;99630.84;;;21.99;76.33
12781;BME280;6454;43.304;24.344;2022-08-20T04:33:22;99641.56;;;22.04;76.65
12781;BME280;6454;43.304;24.344;2022-08-20T04:35:50;99636.13;;;22.11;76.59
12781;BME280;6454;43.304;24.344;2022-08-20T04:38:18;99633.03;;;22.16;76.29
12781;BME280;6454;43.304;24.344;2022-08-20T04:40:46;99634.69;;;22.24;76.32
12781;BME280;6454;43.304;24.344;2022-08-20T04:43:24;99638.72;;;22.30;76.02
12781;BME280;6454;43.304;24.344;2022-08-20T04:45:52;99625.31;;;22.32;75.44
12781;BME280;6454;43.304;24.344;2022-08-20T04:48:21;99641.28;;;22.49;75.28
12781;BME280;6454;43.304;24.344;2022-08-20T04:50:50;99646.94;;;22.60;75.76
12781;BME280;6454;43.304;24.344;2022-08-20T04:53:20;99643.88;;;22.65;75.27
12781;BME280;6454;43.304;24.344;2022-08-20T04:55:48;99640.81;;;22.73;75.73
12781;BME280;6454;43.304;24.344;2022-08-20T04:58:23;99643.22;;;22.78;74.92
12781;BME280;6454;43.304;24.344;2022-08-20T05:00:54;99634.25;;;22.88;73.78
12781;BME280;6454;43.304;24.344;2022-08-20T05:03:24;99609.25;;;22.81;73.01
12781;BME280;6454;43.304;24.344;2022-08-20T05:05:51;99614.94;;;22.95;72.57
12781;BME280;6454;43.304;24.344;2022-08-20T05:08:20;99630.84;;;23.09;71.99
12781;BME280;6454;43.304;24.344;2022-08-20T05:10:47;99631.81;;;23.27;71.90
12781;BME280;6454;43.304;24.344;2022-08-20T05:13:14;99633.81;;;23.34;69.93
12781;BME280;6454;43.304;24.344;2022-08-20T05:15:41;99637.91;;;23.47;69.76
12781;BME280;6454;43.304;24.344;2022-08-20T05:18:10;99635.22;;;23.57;69.59
12781;BME280;6454;43.304;24.344;2022-08-20T05:20:41;99634.50;;;23.71;69.38
12781;BME280;6454;43.304;24.344;2022-08-20T05:23:09;99635.78;;;23.84;68.48
12781;BME280;6454;43.304;24.344;2022-08-20T05:25:37;99640.59;;;23.98;68.19
12781;BME280;6454;43.304;24.344;2022-08-20T05:28:07;99606.13;;;23.92;66.34
12781;BME280;6454;43.304;24.344;2022-08-20T05:30:38;99618.88;;;24.07;65.41
12781;BME280;6454;43.304;24.344;2022-08-20T05:33:07;99570.53;;;23.94;65.42
12781;BME280;6454;43.304;24.344;2022-08-20T05:35:36;99636.47;;;24.43;65.04
12781;BME280;6454;43.304;24.344;2022-08-20T05:38:05;99635.72;;;24.60;63.79
12781;BME280;6454;43.304;24.344;2022-08-20T05:40:33;99635.31;;;24.68;63.50
12781;BME280;6454;43.304;24.344;2022-08-20T05:43:00;99640.50;;;24.77;62.99
12781;BME280;6454;43.304;24.344;2022-08-20T05:45:29;99635.41;;;24.82;62.60
12781;BME280;6454;43.304;24.344;2022-08-20T05:47:56;99643.72;;;24.89;62.18
12781;BME280;6454;43.304;24.344;2022-08-20T05:50:23;99614.78;;;24.83;61.92
12781;BME280;6454;43.304;24.344;2022-08-20T05:52:50;99649.31;;;25.14;61.38
12781;BME280;6454;43.304;24.344;2022-08-20T05:55:20;99644.16;;;25.27;60.66
12781;BME280;6454;43.304;24.344;2022-08-20T05:57:48;99646.91;;;25.41;60.55
12781;BME280;6454;43.304;24.344;2022-08-20T06:00:21;99638.22;;;25.46;59.93
12781;BME280;6454;43.304;24.344;2022-08-20T06:02:48;99635.00;;;25.44;59.62
12781;BME280;6454;43.304;24.344;2022-08-20T06:05:32;99637.38;;;25.63;59.54
12781;BME280;6454;43.304;24.344;2022-08-20T06:08:00;99638.19;;;25.74;59.50
12781;BME280;6454;43.304;24.344;2022-08-20T06:10:28;99635.34;;;25.92;59.01
12781;BME280;6454;43.304;24.344;2022-08-20T06:12:55;99637.28;;;26.09;58.46
12781;BME280;6454;43.304;24.344;2022-08-20T06:15:21;99629.31;;;26.21;58.27
12781;BME280;6454;43.304;24.344;2022-08-20T06:17:48;99644.38;;;26.31;58.19
12781;BME280;6454;43.304;24.344;2022-08-20T06:20:15;99640.75;;;26.41;58.19
12781;BME280;6454;43.304;24.344;2022-08-20T06:22:42;99647.81;;;26.56;57.92
12781;BME280;6454;43.304;24.344;2022-08-20T06:25:09;99632.63;;;26.68;57.46
12781;BME280;6454;43.304;24.344;2022-08-20T06:27:39;99633.41;;;26.79;56.83
12781;BME280;6454;43.304;24.344;2022-08-20T06:30:08;99622.69;;;26.70;55.86
12781;BME280;6454;43.304;24.344;2022-08-20T06:32:35;99631.31;;;26.94;56.62
12781;BME280;6454;43.304;24.344;2022-08-20T06:35:04;99627.34;;;26.95;55.68
12781;BME280;6454;43.304;24.344;2022-08-20T06:37:32;99625.72;;;26.97;55.81
12781;BME280;6454;43.304;24.344;2022-08-20T06:40:02;99635.13;;;27.14;55.80
12781;BME280;6454;43.304;24.344;2022-08-20T06:42:31;99637.00;;;27.27;54.56
12781;BME280;6454;43.304;24.344;2022-08-20T06:44:59;99637.34;;;27.33;54.04
12781;BME280;6454;43.304;24.344;2022-08-20T06:47:29;99642.56;;;27.31;54.33
12781;BME280;6454;43.304;24.344;2022-08-20T06:49:56;99645.31;;;27.34;52.90
12781;BME280;6454;43.304;24.344;2022-08-20T06:52:23;99651.59;;;27.45;52.53
12781;BME280;6454;43.304;24.344;2022-08-20T06:54:50;99642.84;;;27.47;51.56
12781;BME280;6454;43.304;24.344;2022-08-20T06:57:17;99640.84;;;27.47;50.83
12781;BME280;6454;43.304;24.344;2022-08-20T06:59:44;99642.25;;;27.66;51.14
12781;BME280;6454;43.304;24.344;2022-08-20T07:02:12;99639.31;;;27.80;50.75
12781;BME280;6454;43.304;24.344;2022-08-20T07:04:39;99634.34;;;27.98;51.03
12781;BME280;6454;43.304;24.344;2022-08-20T07:07:14;99626.28;;;28.07;51.45
12781;BME280;6454;43.304;24.344;2022-08-20T07:09:41;99625.44;;;28.14;50.88
12781;BME280;6454;43.304;24.344;2022-08-20T07:12:08;99626.97;;;28.19;50.86
12781;BME280;6454;43.304;24.344;2022-08-20T07:14:35;99623.25;;;28.29;50.49
12781;BME280;6454;43.304;24.344;2022-08-20T07:17:02;99630.25;;;28.40;50.31
12781;BME280;6454;43.304;24.344;2022-08-20T07:19:31;99634.91;;;28.50;49.84
12781;BME280;6454;43.304;24.344;2022-08-20T07:21:58;99628.06;;;28.55;48.85
12781;BME280;6454;43.304;24.344;2022-08-20T07:24:25;99622.41;;;28.62;49.17
12781;BME280;6454;43.304;24.344;2022-08-20T07:26:52;99624.53;;;28.81;49.09
12781;BME280;6454;43.304;24.344;2022-08-20T07:29:18;99614.78;;;28.93;49.26
12781;BME280;6454;43.304;24.344;2022-08-20T07:31:45;99614.25;;;29.01;49.09
12781;BME280;6454;43.304;24.344;2022-08-20T07:34:31;99620.06;;;29.10;49.11
12781;BME280;6454;43.304;24.344;2022-08-20T07:36:58;99608.59;;;29.05;48.82
12781;BME280;6454;43.304;24.344;2022-08-20T07:39:25;99614.28;;;29.24;49.20
12781;BME280;6454;43.304;24.344;2022-08-20T07:41:52;99622.75;;;29.44;48.38
12781;BME280;6454;43.304;24.344;2022-08-20T07:44:28;99603.31;;;29.57;47.19
12781;BME280;6454;43.304;24.344;2022-08-20T07:46:57;99604.34;;;29.66;47.89
12781;BME280;6454;43.304;24.344;2022-08-20T07:49:24;99592.75;;;29.68;47.91
12781;BME280;6454;43.304;24.344;2022-08-20T07:51:52;99593.38;;;29.79;47.57
12781;BME280;6454;43.304;24.344;2022-08-20T07:54:19;99593.78;;;29.97;47.71
12781;BME280;6454;43.304;24.344;2022-08-20T07:56:46;99563.75;;;30.01;47.13
12781;BME280;6454;43.304;24.344;2022-08-20T07:59:13;99582.34;;;30.27;46.50
12781;BME280;6454;43.304;24.344;2022-08-20T08:01:40;99575.44;;;30.32;46.91
12781;BME280;6454;43.304;24.344;2022-08-20T08:04:07;99586.44;;;30.42;46.49
12781;BME280;6454;43.304;24.344;2022-08-20T08:06:33;99583.69;;;30.58;46.38
12781;BME280;6454;43.304;24.344;2022-08-20T08:09:05;99571.91;;;30.83;46.14
12781;BME280;6454;43.304;24.344;2022-08-20T08:11:35;99577.34;;;30.90;45.90
12781;BME280;6454;43.304;24.344;2022-08-20T08:14:05;99570.69;;;31.00;45.54
12781;BME280;6454;43.304;24.344;2022-08-20T08:16:34;99541.38;;;31.05;44.89
12781;BME280;6454;43.304;24.344;2022-08-20T08:19:04;99564.06;;;31.39;43.97
12781;BME280;6454;43.304;24.344;2022-08-20T08:21:31;99544.66;;;31.48;44.37
12781;BME280;6454;43.304;24.344;2022-08-20T08:23:58;99553.16;;;31.73;43.57
12781;BME280;6454;43.304;24.344;2022-08-20T08:26:27;99547.59;;;31.86;42.56
12781;BME280;6454;43.304;24.344;2022-08-20T08:28:54;99541.31;;;31.95;41.78
12781;BME280;6454;43.304;24.344;2022-08-20T08:31:21;99524.75;;;32.00;40.16
12781;BME280;6454;43.304;24.344;2022-08-20T08:33:50;99543.00;;;32.33;42.25
12781;BME280;6454;43.304;24.344;2022-08-20T08:36:16;99542.34;;;32.55;38.75
12781;BME280;6454;43.304;24.344;2022-08-20T08:38:44;99537.28;;;32.75;34.53
12781;BME280;6454;43.304;24.344;2022-08-20T08:41:15;99523.13;;;32.78;34.83
12781;BME280;6454;43.304;24.344;2022-08-20T08:43:47;99531.06;;;32.92;35.42
12781;BME280;6454;43.304;24.344;2022-08-20T08:46:18;99529.06;;;33.05;34.41
12781;BME280;6454;43.304;24.344;2022-08-20T08:48:49;99528.22;;;33.18;34.14
12781;BME280;6454;43.304;24.344;2022-08-20T08:51:23;99529.19;;;33.24;33.95
12781;BME280;6454;43.304;24.344;2022-08-20T08:53:53;99527.41;;;33.30;33.11
12781;BME280;6454;43.304;24.344;2022-08-20T08:56:23;99523.69;;;33.33;33.36
12781;BME280;6454;43.304;24.344;2022-08-20T08:58:52;99515.38;;;33.51;32.47
12781;BME280;6454;43.304;24.344;2022-08-20T09:01:22;99514.38;;;33.57;32.36
12781;BME280;6454;43.304;24.344;2022-08-20T09:03:50;99516.91;;;33.64;31.97
12781;BME280;6454;43.304;24.344;2022-08-20T09:06:20;99511.28;;;33.64;31.61
12781;BME280;6454;43.304;24.344;2022-08-20T09:08:51;99514.94;;;33.74;31.98
12781;BME280;6454;43.304;24.344;2022-08-20T09:11:21;99517.81;;;33.83;29.50
12781;BME280;6454;43.304;24.344;2022-08-20T09:13:48;99504.81;;;33.77;30.13
12781;BME280;6454;43.304;24.344;2022-08-20T09:16:17;99499.31;;;33.95;29.42
12781;BME280;6454;43.304;24.344;2022-08-20T09:18:44;99499.56;;;34.09;29.81
12781;BME280;6454;43.304;24.344;2022-08-20T09:21:11;99488.63;;;34.11;28.14
12781;BME280;6454;43.304;24.344;2022-08-20T09:23:39;99497.25;;;34.17;28.21
12781;BME280;6454;43.304;24.344;2022-08-20T09:26:06;99491.50;;;34.20;29.06
12781;BME280;6454;43.304;24.344;2022-08-20T09:28:34;99489.31;;;34.24;29.32
12781;BME280;6454;43.304;24.344;2022-08-20T09:31:02;99483.22;;;34.26;29.85
12781;BME280;6454;43.304;24.344;2022-08-20T09:33:30;99483.53;;;34.28;29.00
12781;BME280;6454;43.304;24.344;2022-08-20T09:35:57;99490.00;;;34.38;29.42
12781;BME280;6454;43.304;24.344;2022-08-20T09:38:24;99490.34;;;34.49;27.85
12781;BME280;6454;43.304;24.344;2022-08-20T09:40:51;99480.50;;;34.53;28.84
12781;BME280;6454;43.304;24.344;2022-08-20T09:43:18;99480.38;;;34.57;27.57
12781;BME280;6454;43.304;24.344;2022-08-20T09:45:45;99487.13;;;34.68;27.73
12781;BME280;6454;43.304;24.344;2022-08-20T09:48:12;99480.09;;;34.73;27.20
12781;BME280;6454;43.304;24.344;2022-08-20T09:50:44;99484.19;;;34.81;27.26
12781;BME280;6454;43.304;24.344;2022-08-20T09:53:12;99469.97;;;34.84;27.60
12781;BME280;6454;43.304;24.344;2022-08-20T09:55:41;99476.69;;;34.87;27.76
12781;BME280;6454;43.304;24.344;2022-08-20T09:58:16;99482.81;;;34.94;28.59
12781;BME280;6454;43.304;24.344;2022-08-20T10:00:45;99469.84;;;35.06;28.71
12781;BME280;6454;43.304;24.344;2022-08-20T10:03:13;99473.13;;;35.14;29.01
12781;BME280;6454;43.304;24.344;2022-08-20T10:05:42;99466.88;;;35.19;28.52
12781;BME280;6454;43.304;24.344;2022-08-20T10:08:10;99470.78;;;35.21;28.84
12781;BME280;6454;43.304;24.344;2022-08-20T10:10:37;99467.81;;;35.25;28.91
12781;BME280;6454;43.304;24.344;2022-08-20T10:13:04;99461.22;;;35.28;30.04
12781;BME280;6454;43.304;24.344;2022-08-20T10:15:32;99450.13;;;35.24;29.84
12781;BME280;6454;43.304;24.344;2022-08-20T10:18:02;99469.69;;;35.37;30.44
12781;BME280;6454;43.304;24.344;2022-08-20T10:20:30;99459.19;;;35.55;28.57
12781;BME280;6454;43.304;24.344;2022-08-20T10:22:59;99459.97;;;35.65;27.69
12781;BME280;6454;43.304;24.344;2022-08-20T10:25:26;99447.25;;;35.70;28.09
12781;BME280;6454;43.304;24.344;2022-08-20T10:27:54;99449.41;;;35.84;27.78
12781;BME280;6454;43.304;24.344;2022-08-20T10:30:21;99450.94;;;35.94;27.69
12781;BME280;6454;43.304;24.344;2022-08-20T10:32:48;99458.78;;;35.99;27.54
12781;BME280;6454;43.304;24.344;2022-08-20T10:35:15;99435.47;;;35.80;27.83
12781;BME280;6454;43.304;24.344;2022-08-20T10:37:42;99447.69;;;35.86;27.40
12781;BME280;6454;43.304;24.344;2022-08-20T10:40:12;99455.19;;;35.89;27.93
12781;BME280;6454;43.304;24.344;2022-08-20T10:42:40;99454.19;;;36.10;27.85
12781;BME280;6454;43.304;24.344;2022-08-20T10:45:07;99449.19;;;36.14;27.40
12781;BME280;6454;43.304;24.344;2022-08-20T10:47:35;99442.47;;;36.03;27.58
12781;BME280;6454;43.304;24.344;2022-08-20T10:50:04;99437.91;;;36.05;27.42
12781;BME280;6454;43.304;24.344;2022-08-20T10:52:31;99435.78;;;36.24;27.50
12781;BME280;6454;43.304;24.344;2022-08-20T10:54:58;99449.41;;;36.35;27.24
12781;BME280;6454;43.304;24.344;2022-08-20T10:57:28;99443.25;;;36.36;27.07
12781;BME280;6454;43.304;24.344;2022-08-20T10:59:57;99440.25;;;36.49;26.04
12781;BME280;6454;43.304;24.344;2022-08-20T11:02:25;99441.16;;;36.46;26.72
12781;BME280;6454;43.304;24.344;2022-08-20T11:04:53;99449.06;;;36.33;26.76
12781;BME280;6454;43.304;24.344;2022-08-20T11:07:23;99436.16;;;36.17;27.23
12781;BME280;6454;43.304;24.344;2022-08-20T11:09:51;99422.47;;;36.25;26.47
12781;BME280;6454;43.304;24.344;2022-08-20T11:12:19;99417.97;;;36.42;27.14
12781;BME280;6454;43.304;24.344;2022-08-20T11:14:48;99428.03;;;36.66;26.44
12781;BME280;6454;43.304;24.344;2022-08-20T11:17:18;99424.97;;;36.79;25.56
12781;BME280;6454;43.304;24.344;2022-08-20T11:19:46;99425.19;;;36.90;26.48
12781;BME280;6454;43.304;24.344;2022-08-20T11:22:13;99419.41;;;36.94;27.18
12781;BME280;6454;43.304;24.344;2022-08-20T11:24:40;99416.19;;;37.01;26.34
12781;BME280;6454;43.304;24.344;2022-08-20T11:27:07;99412.69;;;37.06;26.11
12781;BME280;6454;43.304;24.344;2022-08-20T11:29:34;99413.75;;;37.08;26.49
12781;BME280;6454;43.304;24.344;2022-08-20T11:32:04;99413.19;;;37.04;25.63
12781;BME280;6454;43.304;24.344;2022-08-20T11:34:31;99407.41;;;36.99;26.25
12781;BME280;6454;43.304;24.344;2022-08-20T11:36:58;99406.75;;;37.04;25.94
12781;BME280;6454;43.304;24.344;2022-08-20T11:39:25;99402.06;;;37.01;25.67
12781;BME280;6454;43.304;24.344;2022-08-20T11:41:52;99400.78;;;37.02;27.11
12781;BME280;6454;43.304;24.344;2022-08-20T11:44:19;99394.97;;;36.81;27.11
12781;BME280;6454;43.304;24.344;2022-08-20T11:46:46;99379.50;;;36.68;27.63
12781;BME280;6454;43.304;24.344;2022-08-20T11:49:14;99392.50;;;36.51;26.26
12781;BME280;6454;43.304;24.344;2022-08-20T11:51:41;99381.13;;;36.60;26.89
12781;BME280;6454;43.304;24.344;2022-08-20T11:54:08;99388.66;;;36.63;27.07
12781;BME280;6454;43.304;24.344;2022-08-20T11:56:35;99381.34;;;36.56;26.94
12781;BME280;6454;43.304;24.344;2022-08-20T11:59:02;99387.56;;;36.60;26.65
12781;BME280;6454;43.304;24.344;2022-08-20T12:01:29;99386.53;;;36.72;26.76
12781;BME280;6454;43.304;24.344;2022-08-20T12:03:56;99382.84;;;36.66;27.28
12781;BME280;6454;43.304;24.344;2022-08-20T12:06:24;99380.00;;;36.66;27.45
12781;BME280;6454;43.304;24.344;2022-08-20T12:08:51;99376.69;;;36.44;27.27
12781;BME280;6454;43.304;24.344;2022-08-20T12:11:18;99373.47;;;36.28;27.59
12781;BME280;6454;43.304;24.344;2022-08-20T12:13:45;99374.63;;;36.21;27.52
12781;BME280;6454;43.304;24.344;2022-08-20T12:16:12;99367.81;;;36.04;27.72
12781;BME280;6454;43.304;24.344;2022-08-20T12:18:39;99371.13;;;35.93;28.13
12781;BME280;6454;43.304;24.344;2022-08-20T12:21:06;99345.16;;;35.80;28.31
12781;BME280;6454;43.304;24.344;2022-08-20T12:23:34;99352.97;;;35.85;28.62
12781;BME280;6454;43.304;24.344;2022-08-20T12:26:01;99354.91;;;36.12;28.80
12781;BME280;6454;43.304;24.344;2022-08-20T12:28:29;99339.13;;;36.29;28.07
12781;BME280;6454;43.304;24.344;2022-08-20T12:30:56;99347.81;;;36.49;28.15
12781;BME280;6454;43.304;24.344;2022-08-20T12:33:24;99342.78;;;36.44;28.40
12781;BME280;6454;43.304;24.344;2022-08-20T12:35:51;99333.00;;;36.54;27.88
12781;BME280;6454;43.304;24.344;2022-08-20T12:38:18;99326.91;;;36.70;27.51
12781;BME280;6454;43.304;24.344;2022-08-20T12:40:46;99327.28;;;36.63;27.62
12781;BME280;6454;43.304;24.344;2022-08-20T12:43:13;99325.34;;;36.69;27.85
12781;BME280;6454;43.304;24.344;2022-08-20T12:45:40;99331.06;;;36.60;27.56
12781;BME280;6454;43.304;24.344;2022-08-20T12:48:09;99330.41;;;36.42;27.21
12781;BME280;6454;43.304;24.344;2022-08-20T12:50:38;99323.78;;;36.21;27.46
12781;BME280;6454;43.304;24.344;2022-08-20T12:53:06;99327.03;;;36.05;27.81
12781;BME280;6454;43.304;24.344;2022-08-20T12:55:34;99329.81;;;36.14;28.23
12781;BME280;6454;43.304;24.344;2022-08-20T12:58:03;99333.28;;;36.09;28.42
12781;BME280;6454;43.304;24.344;2022-08-20T13:00:34;99322.69;;;35.95;27.84
12781;BME280;6454;43.304;24.344;2022-08-20T13:03:04;99318.78;;;35.92;28.13
12781;BME280;6454;43.304;24.344;2022-08-20T13:05:32;99312.34;;;35.92;28.03